CN-0183 weather

Zhangzhou/Chang-Chou Airfield
Fujian Province, China

Public forecast

Using degrees Celsius for public forecast. Weather courtesy of forecast.io.

METAR (pilot weather report)

Closest report is Xiamen Gaoqi International Airport, 25.9 nm (48.0 km) E. Retrieved 2019/05/24 07:00 UTC (32 seconds ago):

ZSAM 240700Z 02002MPS 340V070 9999 SCT030 FEW030TCU 27/20 Q1012 NOSIG

TAF (pilot weather forecast)

Closest forecast is Xiamen Gaoqi International Airport, 25.9 nm (48.0 km) E. Retrieved 2019/05/24 06:00 UTC (1 hour ago):

TAF ZSAM 240312Z 2406/2506 12004MPS 5000 BR BKN033 TX27/2406Z TN22/2421Z TEMPO 2500/2506 4000 SHRA BKN010 FEW026CB BKN030